Time;durP1;ratioP1;P1;durP2;ratioP2;P2;SDS_P1;SDS_P2;PMS_P1;PMS_P2;Temp;Humidity;BMP_temperature;BMP_pressure;BME280_temperature;BME280_humidity;BME280_pressure;Samples;Min_cycle;Max_cycle;Signal;HPM_P1;HPM_P2
2022/04/28 00:01:37;;;;;;;2.70;1.63;;;7.50;98.00;;;;;;4934128;29;20799;-68
2022/04/28 00:04:05;;;;;;;2.43;1.43;;;7.30;98.00;;;;;;4935319;29;20491;-69
2022/04/28 00:06:34;;;;;;;3.10;1.40;;;7.30;98.00;;;;;;4935105;29;20582;-68
2022/04/28 00:09:02;;;;;;;1.20;1.20;;;7.30;98.00;;;;;;4934988;29;20512;-69
2022/04/28 00:11:29;;;;;;;2.27;2.07;;;7.20;98.00;;;;;;4935148;29;20484;-69
2022/04/28 00:13:58;;;;;;;1.80;1.63;;;7.20;98.00;;;;;;4933731;29;20464;-68
2022/04/28 00:16:26;;;;;;;1.30;1.17;;;7.20;98.00;;;;;;4935160;29;20463;-68
2022/04/28 00:18:55;;;;;;;2.17;1.80;;;7.20;98.00;;;;;;4934938;29;20466;-68
2022/04/28 00:21:24;;;;;;;1.40;1.20;;;7.10;98.00;;;;;;4934544;29;20480;-69
2022/04/28 00:23:53;;;;;;;1.40;1.20;;;7.10;98.00;;;;;;4933599;29;20473;-68
2022/04/28 00:26:21;;;;;;;1.60;1.47;;;7.10;98.00;;;;;;4934890;29;20850;-69
2022/04/28 00:28:49;;;;;;;1.60;1.40;;;7.00;98.00;;;;;;4934643;29;20519;-68
2022/04/28 00:31:17;;;;;;;1.60;1.50;;;7.10;98.00;;;;;;4933479;29;20479;-69
2022/04/28 00:33:45;;;;;;;2.90;2.07;;;7.10;98.00;;;;;;4934992;29;20463;-69
2022/04/28 00:36:13;;;;;;;1.87;1.40;;;7.20;98.00;;;;;;4933532;29;20463;-70
2022/04/28 00:38:42;;;;;;;1.90;1.60;;;7.20;98.00;;;;;;4934596;29;20471;-68
2022/04/28 00:41:12;;;;;;;1.30;1.30;;;7.20;98.00;;;;;;4933659;29;20493;-69
2022/04/28 00:43:50;;;;;;;1.43;1.30;;;7.00;98.00;;;;;;4934592;29;20463;-68
2022/04/28 00:46:17;;;;;;;1.70;1.40;;;6.90;98.00;;;;;;4934685;29;20499;-69
2022/04/28 00:51:41;;;;;;;2.53;1.97;;;6.80;98.00;;;;;;4912998;29;20465;-68
2022/04/28 00:54:09;;;;;;;1.93;1.73;;;6.70;98.00;;;;;;4929065;29;20524;-68
2022/04/28 00:56:38;;;;;;;3.10;1.87;;;6.60;98.00;;;;;;4934408;29;20946;-68
2022/04/28 00:59:05;;;;;;;1.83;1.30;;;6.60;98.00;;;;;;4934167;29;20462;-68
2022/04/28 01:01:33;;;;;;;1.57;1.30;;;6.70;98.00;;;;;;4934571;29;20463;-68
2022/04/28 01:04:01;;;;;;;1.20;1.20;;;6.70;98.00;;;;;;4934150;29;20488;-69
2022/04/28 01:06:28;;;;;;;1.20;1.10;;;6.80;98.00;;;;;;4933014;29;20576;-68
2022/04/28 01:08:57;;;;;;;1.50;1.40;;;6.80;98.00;;;;;;4934352;29;20447;-68
2022/04/28 01:11:27;;;;;;;4.50;2.53;;;6.70;98.00;;;;;;4934205;29;20962;-69
2022/04/28 01:13:55;;;;;;;1.20;1.10;;;6.60;98.00;;;;;;4934099;29;21074;-68
2022/04/28 01:16:22;;;;;;;1.90;1.40;;;6.60;98.00;;;;;;4934217;29;20458;-69
2022/04/28 01:18:49;;;;;;;1.47;1.43;;;6.50;98.00;;;;;;4933964;29;20458;-69
2022/04/28 01:21:18;;;;;;;4.70;1.93;;;6.50;98.00;;;;;;4934266;29;20469;-69
2022/04/28 01:23:45;;;;;;;2.30;2.13;;;6.50;98.00;;;;;;4934306;29;20473;-69
2022/04/28 01:26:14;;;;;;;1.77;1.40;;;6.60;98.00;;;;;;4932926;29;20499;-68
2022/04/28 01:28:41;;;;;;;2.07;1.40;;;6.60;98.00;;;;;;4933984;29;20482;-69
2022/04/28 01:31:10;;;;;;;2.57;2.27;;;6.40;98.00;;;;;;4934051;29;20474;-68
2022/04/28 01:33:38;;;;;;;1.40;1.10;;;6.30;98.00;;;;;;4932741;29;20455;-68
2022/04/28 01:36:05;;;;;;;1.83;1.60;;;6.20;98.00;;;;;;4932822;29;21014;-68
2022/04/28 01:38:34;;;;;;;1.30;1.10;;;6.30;98.00;;;;;;4933988;29;20458;-68
2022/04/28 01:41:01;;;;;;;5.40;1.77;;;6.30;98.00;;;;;;4934289;29;20463;-69
2022/04/28 01:43:29;;;;;;;1.50;1.30;;;6.30;98.00;;;;;;4934243;29;20462;-69
2022/04/28 01:45:57;;;;;;;1.77;1.73;;;6.20;98.00;;;;;;4934202;29;20463;-67
2022/04/28 01:48:24;;;;;;;1.50;1.40;;;6.10;98.00;;;;;;4933980;29;20463;-68
2022/04/28 01:56:25;;;;;;;6.77;1.60;;;6.20;98.00;;;;;;4933869;29;20457;-69
2022/04/28 01:58:52;;;;;;;2.50;1.97;;;6.10;98.00;;;;;;4933547;29;20464;-68
2022/04/28 02:01:19;;;;;;;5.40;1.60;;;6.20;98.00;;;;;;4933754;29;20533;-68
2022/04/28 02:03:46;;;;;;;3.27;1.67;;;6.40;98.00;;;;;;4933599;29;20458;-68
2022/04/28 02:06:14;;;;;;;1.20;1.10;;;6.60;98.00;;;;;;4936005;29;20466;-67
2022/04/28 02:08:44;;;;;;;2.30;2.13;;;6.40;98.00;;;;;;4936014;29;20462;-67
2022/04/28 02:11:11;;;;;;;1.20;1.17;;;6.40;98.00;;;;;;4937420;29;20473;-68
2022/04/28 02:13:39;;;;;;;2.80;1.83;;;6.40;98.00;;;;;;4937483;29;20813;-68
2022/04/28 02:16:06;;;;;;;1.47;1.33;;;6.30;98.00;;;;;;4937047;29;21044;-69
2022/04/28 02:18:33;;;;;;;1.40;1.27;;;6.30;98.00;;;;;;4937276;29;20493;-69
2022/04/28 02:21:00;;;;;;;1.20;1.00;;;6.20;98.00;;;;;;4937144;29;20462;-67
2022/04/28 02:23:27;;;;;;;2.13;1.37;;;6.10;98.00;;;;;;4935868;29;20484;-69
2022/04/28 02:25:56;;;;;;;1.50;1.40;;;6.10;98.00;;;;;;4937076;29;20455;-69
2022/04/28 02:28:23;;;;;;;1.20;1.10;;;6.00;98.00;;;;;;4937031;29;20493;-68
2022/04/28 02:30:51;;;;;;;1.80;1.80;;;6.00;98.00;;;;;;4936864;29;20459;-68
2022/04/28 02:33:19;;;;;;;1.73;1.43;;;5.80;98.00;;;;;;4937156;29;20996;-68
2022/04/28 02:35:46;;;;;;;1.30;1.30;;;5.90;98.00;;;;;;4936927;29;20472;-67
2022/04/28 02:38:13;;;;;;;1.67;1.60;;;5.80;98.00;;;;;;4935889;29;20460;-69
2022/04/28 02:40:41;;;;;;;1.40;1.30;;;5.80;98.00;;;;;;4937064;29;20462;-68
2022/04/28 02:43:10;;;;;;;1.63;1.27;;;5.70;98.00;;;;;;4937066;29;20461;-69
2022/04/28 02:45:37;;;;;;;2.27;1.70;;;5.70;98.00;;;;;;4935648;29;20484;-69
2022/04/28 02:48:07;;;;;;;3.10;2.10;;;5.70;98.00;;;;;;4936543;29;21050;-67
2022/04/28 02:50:34;;;;;;;10.10;2.27;;;5.80;98.00;;;;;;4936574;29;20470;-67
2022/04/28 02:53:01;;;;;;;4.03;1.40;;;5.70;98.00;;;;;;4936672;29;20831;-69
2022/04/28 02:55:29;;;;;;;1.97;1.53;;;5.60;98.00;;;;;;4935297;29;20539;-68
2022/04/28 02:57:56;;;;;;;1.20;1.10;;;5.60;98.00;;;;;;4935351;29;20457;-69
2022/04/28 03:00:24;;;;;;;3.10;2.03;;;5.50;98.00;;;;;;4936509;29;20558;-68
2022/04/28 03:02:52;;;;;;;4.33;2.90;;;5.40;98.00;;;;;;4935173;29;20473;-68
2022/04/28 03:05:19;;;;;;;1.63;1.40;;;5.40;98.00;;;;;;4936430;29;20947;-68
2022/04/28 03:10:49;;;;;;;1.40;1.40;;;5.20;98.00;;;;;;4936324;29;20441;-69
2022/04/28 03:13:18;;;;;;;2.30;1.73;;;5.30;98.00;;;;;;4935322;29;20464;-68
2022/04/28 03:15:47;;;;;;;1.37;1.33;;;5.30;98.00;;;;;;4935957;29;20608;-69
2022/04/28 03:18:14;;;;;;;1.77;1.60;;;5.40;98.00;;;;;;4935812;29;20462;-68
2022/04/28 03:20:42;;;;;;;1.40;1.10;;;5.40;98.00;;;;;;4936049;29;20453;-69
2022/04/28 03:23:11;;;;;;;1.57;1.20;;;5.30;98.00;;;;;;4936243;29;20486;-68
2022/04/28 03:25:39;;;;;;;2.00;1.90;;;5.20;98.00;;;;;;4935003;29;20459;-69
2022/04/28 03:28:07;;;;;;;1.33;1.33;;;5.20;98.00;;;;;;4936060;29;20490;-68
2022/04/28 03:30:34;;;;;;;1.90;1.30;;;5.30;98.00;;;;;;4935727;29;20513;-67
2022/04/28 03:33:02;;;;;;;2.60;1.70;;;5.20;98.00;;;;;;4935793;29;20466;-68
2022/04/28 03:35:30;;;;;;;2.40;1.70;;;5.10;98.00;;;;;;4935879;29;20473;-68
2022/04/28 03:37:59;;;;;;;1.70;1.63;;;5.00;98.00;;;;;;4936035;29;20484;-69
2022/04/28 03:40:26;;;;;;;1.57;1.47;;;5.00;98.00;;;;;;4934612;29;20457;-67
2022/04/28 03:42:53;;;;;;;1.20;1.20;;;5.10;98.00;;;;;;4936253;29;20470;-68
2022/04/28 03:45:20;;;;;;;2.23;1.93;;;5.00;98.00;;;;;;4935811;29;20964;-69
2022/04/28 03:47:47;;;;;;;1.30;1.20;;;4.90;98.00;;;;;;4935425;29;20495;-68
2022/04/28 03:50:17;;;;;;;1.70;1.63;;;5.00;98.00;;;;;;4935710;29;20467;-68
2022/04/28 03:52:44;;;;;;;1.20;1.00;;;5.00;98.00;;;;;;4935766;29;20475;-68
2022/04/28 03:55:11;;;;;;;2.13;1.50;;;4.90;98.00;;;;;;4934281;29;20520;-67
2022/04/28 03:57:38;;;;;;;3.27;1.93;;;4.90;98.00;;;;;;4935780;29;20616;-69
2022/04/28 04:00:06;;;;;;;3.63;2.73;;;4.90;98.00;;;;;;4935671;29;20894;-67
2022/04/28 04:02:34;;;;;;;1.80;1.77;;;4.90;98.00;;;;;;4935558;29;20472;-69
2022/04/28 04:05:01;;;;;;;3.57;1.67;;;4.80;98.00;;;;;;4933945;29;20516;-68
2022/04/28 04:07:31;;;;;;;1.20;1.00;;;4.80;98.00;;;;;;4935058;29;20513;-68
2022/04/28 04:09:58;;;;;;;1.30;1.20;;;4.70;98.00;;;;;;4935239;29;20558;-67
2022/04/28 04:12:26;;;;;;;1.43;1.37;;;4.80;98.00;;;;;;4935245;29;20464;-68
2022/04/28 04:14:54;;;;;;;1.30;1.30;;;4.80;98.00;;;;;;4935014;29;20455;-68
2022/04/28 04:17:21;;;;;;;1.93;1.80;;;4.80;98.00;;;;;;4935112;29;20461;-68
2022/04/28 04:19:48;;;;;;;1.80;1.33;;;4.80;98.00;;;;;;4934892;29;20821;-69
2022/04/28 04:22:15;;;;;;;1.20;1.10;;;4.90;98.00;;;;;;4934907;29;20516;-69
2022/04/28 04:24:44;;;;;;;2.53;1.80;;;4.90;98.00;;;;;;4934858;29;20957;-67
2022/04/28 04:27:11;;;;;;;1.30;1.20;;;5.00;98.00;;;;;;4932968;29;20496;-68
2022/04/28 04:29:38;;;;;;;1.77;1.60;;;4.80;98.00;;;;;;4934705;29;20967;-68
2022/04/28 04:32:25;;;;;;;3.13;2.03;;;4.70;98.00;;;;;;4934988;29;20538;-68
2022/04/28 04:34:53;;;;;;;1.40;1.13;;;4.60;98.00;;;;;;4934885;29;20472;-67
2022/04/28 04:37:21;;;;;;;2.03;1.93;;;4.70;98.00;;;;;;4934703;29;20471;-69
2022/04/28 04:39:50;;;;;;;3.77;1.77;;;4.60;98.00;;;;;;4934589;29;20594;-68
2022/04/28 04:42:17;;;;;;;6.77;2.10;;;4.60;98.00;;;;;;4934935;29;20475;-67
2022/04/28 04:44:44;;;;;;;2.30;1.50;;;4.50;98.00;;;;;;4934652;29;20970;-67
2022/04/28 04:47:11;;;;;;;1.63;1.57;;;4.60;98.00;;;;;;4934724;29;20489;-67
2022/04/28 04:49:38;;;;;;;2.10;1.47;;;4.80;98.00;;;;;;4934837;29;20497;-67
2022/04/28 04:52:06;;;;;;;1.80;1.50;;;4.90;98.00;;;;;;4934563;29;20844;-68
2022/04/28 04:54:33;;;;;;;2.70;1.67;;;4.80;98.00;;;;;;4934414;29;21040;-68
2022/04/28 04:57:01;;;;;;;1.60;1.40;;;4.80;98.00;;;;;;4934568;29;20464;-69
2022/04/28 04:59:28;;;;;;;2.20;1.57;;;4.80;98.00;;;;;;4934365;29;20468;-68
2022/04/28 05:01:55;;;;;;;1.20;1.17;;;4.90;98.00;;;;;;4934767;29;20980;-67
2022/04/28 05:04:22;;;;;;;1.20;1.20;;;4.90;98.00;;;;;;4935219;29;20469;-67
2022/04/28 05:06:51;;;;;;;1.20;1.10;;;4.90;98.00;;;;;;4935289;29;20736;-68
2022/04/28 05:09:18;;;;;;;1.20;1.13;;;4.90;98.00;;;;;;4934364;29;20465;-68
2022/04/28 05:11:45;;;;;;;4.00;2.03;;;5.00;98.00;;;;;;4934403;29;20991;-68
2022/04/28 05:14:14;;;;;;;2.60;1.87;;;5.10;98.00;;;;;;4934166;29;20528;-68
2022/04/28 05:16:41;;;;;;;1.40;1.30;;;5.30;98.00;;;;;;4934267;29;20547;-68
2022/04/28 05:19:09;;;;;;;3.67;1.67;;;5.30;98.00;;;;;;4934249;29;20464;-68
2022/04/28 05:21:36;;;;;;;1.30;1.10;;;5.40;98.00;;;;;;4933769;29;20476;-68
2022/04/28 05:24:03;;;;;;;1.63;1.43;;;5.30;98.00;;;;;;4934351;29;20551;-69
2022/04/28 05:26:30;;;;;;;1.20;1.20;;;5.40;98.00;;;;;;4934119;29;20466;-68
2022/04/28 05:28:57;;;;;;;2.27;1.63;;;5.50;98.00;;;;;;4933945;29;20492;-68
2022/04/28 05:31:26;;;;;;;3.60;2.13;;;5.50;98.00;;;;;;4934078;29;20459;-68
2022/04/28 05:33:53;;;;;;;2.50;1.57;;;5.50;98.00;;;;;;4934212;29;20521;-68
2022/04/28 05:36:21;;;;;;;1.30;1.30;;;5.60;98.00;;;;;;4934165;29;20528;-67
2022/04/28 05:38:48;;;;;;;2.23;2.03;;;5.70;98.00;;;;;;4935533;29;20465;-68
2022/04/28 05:41:15;;;;;;;1.50;1.50;;;5.70;98.00;;;;;;4938006;29;20466;-68
2022/04/28 05:46:28;;;;;;;1.60;1.50;;;5.70;98.00;;;;;;4938118;29;20467;-68
2022/04/28 05:48:55;;;;;;;1.90;1.73;;;5.70;98.00;;;;;;4937772;29;20903;-67
2022/04/28 05:51:22;;;;;;;2.03;1.90;;;5.90;98.00;;;;;;4937810;29;20468;-68
2022/04/28 05:53:49;;;;;;;1.97;1.40;;;5.90;98.00;;;;;;4937775;29;20977;-68
2022/04/28 05:56:17;;;;;;;2.13;1.53;;;6.00;98.00;;;;;;4937604;29;20521;-68
2022/04/28 05:58:44;;;;;;;1.87;1.20;;;6.00;98.00;;;;;;4937813;29;20835;-67
2022/04/28 06:01:11;;;;;;;5.20;3.53;;;6.10;98.00;;;;;;4937607;29;20510;-67
2022/04/28 06:03:41;;;;;;;1.47;1.47;;;6.30;98.00;;;;;;4937614;29;20465;-68
2022/04/28 06:06:08;;;;;;;1.20;1.20;;;6.30;98.00;;;;;;4937350;29;20463;-67
2022/04/28 06:08:35;;;;;;;2.13;1.97;;;6.30;98.00;;;;;;4937294;29;20493;-68
2022/04/28 06:11:02;;;;;;;1.87;1.60;;;6.40;98.00;;;;;;4937191;29;20481;-68
2022/04/28 06:13:31;;;;;;;1.57;1.50;;;6.50;98.00;;;;;;4937312;29;20502;-68
2022/04/28 06:15:59;;;;;;;2.50;1.97;;;6.60;98.00;;;;;;4937172;29;20461;-69
2022/04/28 06:18:27;;;;;;;1.60;1.20;;;6.80;98.00;;;;;;4937433;29;20832;-67
2022/04/28 06:20:56;;;;;;;2.03;1.80;;;7.00;98.00;;;;;;4937077;29;20553;-67
2022/04/28 06:23:23;;;;;;;2.50;1.50;;;7.10;98.00;;;;;;4937451;29;20483;-68
2022/04/28 06:25:50;;;;;;;1.43;1.33;;;7.20;98.00;;;;;;4936027;29;20471;-69
2022/04/28 06:28:17;;;;;;;2.60;1.70;;;7.40;98.00;;;;;;4937127;29;20498;-69
2022/04/28 06:30:44;;;;;;;5.60;1.80;;;7.50;98.00;;;;;;4937357;29;20468;-67
2022/04/28 06:33:11;;;;;;;2.60;1.60;;;7.70;98.00;;;;;;4937083;29;20530;-68
2022/04/28 06:35:39;;;;;;;1.30;1.27;;;7.90;98.00;;;;;;4935723;29;20517;-69
2022/04/28 06:38:07;;;;;;;1.20;1.10;;;7.90;98.00;;;;;;4937402;29;20470;-68
2022/04/28 06:40:34;;;;;;;1.83;1.77;;;8.10;98.00;;;;;;4936983;29;20467;-69
2022/04/28 06:43:01;;;;;;;2.80;1.93;;;8.30;98.00;;;;;;4937054;29;20467;-69
2022/04/28 06:45:28;;;;;;;2.23;2.07;;;8.30;98.00;;;;;;4937020;29;20821;-69
2022/04/28 06:47:55;;;;;;;3.57;2.10;;;8.60;98.00;;;;;;4936739;29;20566;-66
2022/04/28 06:50:23;;;;;;;1.30;1.20;;;8.80;98.00;;;;;;4935877;29;20460;-66
2022/04/28 06:52:50;;;;;;;2.43;1.80;;;8.90;98.00;;;;;;4936632;29;20473;-66
2022/04/28 06:55:20;;;;;;;1.83;1.40;;;9.00;98.00;;;;;;4935271;29;20455;-66
2022/04/28 06:57:47;;;;;;;1.97;1.77;;;9.00;98.00;;;;;;4919875;29;20461;-66
2022/04/28 07:00:16;;;;;;;3.93;2.30;;;9.00;98.00;;;;;;4936306;29;20530;-67
2022/04/28 07:02:43;;;;;;;2.77;1.90;;;9.20;98.00;;;;;;4936438;29;20877;-66
2022/04/28 07:05:10;;;;;;;1.80;1.70;;;9.30;98.00;;;;;;4936431;29;20769;-67
2022/04/28 07:07:37;;;;;;;2.17;1.83;;;9.50;98.00;;;;;;4936297;29;21025;-66
2022/04/28 07:10:05;;;;;;;1.80;1.67;;;9.50;98.00;;;;;;4936122;29;20459;-67
2022/04/28 07:12:34;;;;;;;3.80;2.70;;;9.60;98.00;;;;;;4936356;29;20508;-66
2022/04/28 07:15:01;;;;;;;3.83;2.07;;;9.80;98.00;;;;;;4934767;29;20876;-66
2022/04/28 07:17:30;;;;;;;2.03;1.83;;;10.00;98.00;;;;;;4936573;29;20479;-66
2022/04/28 07:19:58;;;;;;;2.03;1.47;;;10.10;98.00;;;;;;4934964;29;20503;-65
2022/04/28 07:22:25;;;;;;;4.13;2.27;;;10.30;98.00;;;;;;4934890;29;20469;-67
2022/04/28 07:24:52;;;;;;;2.67;2.10;;;10.50;98.00;;;;;;4936054;29;20464;-66
2022/04/28 07:27:19;;;;;;;5.83;2.33;;;10.60;98.00;;;;;;4936081;29;20475;-65
2022/04/28 07:29:47;;;;;;;4.50;2.37;;;10.70;98.00;;;;;;4935773;29;20487;-71
2022/04/28 07:32:14;;;;;;;1.90;1.60;;;10.80;98.00;;;;;;4936080;29;20467;-68
2022/04/28 07:34:44;;;;;;;2.07;1.70;;;10.90;98.00;;;;;;4936402;29;20821;-70
2022/04/28 07:37:11;;;;;;;1.83;1.53;;;11.00;98.00;;;;;;4936265;29;20464;-70
2022/04/28 07:39:40;;;;;;;2.10;1.63;;;11.10;98.00;;;;;;4935393;29;20463;-71
2022/04/28 07:42:07;;;;;;;1.57;1.40;;;11.20;98.00;;;;;;4936045;29;21099;-70
2022/04/28 07:44:35;;;;;;;6.57;2.67;;;11.40;98.00;;;;;;4935839;29;20519;-71
2022/04/28 07:47:04;;;;;;;2.97;2.17;;;11.50;98.00;;;;;;4935782;29;20517;-70
2022/04/28 07:49:31;;;;;;;3.20;1.73;;;11.60;98.00;;;;;;4935371;29;20992;-70
2022/04/28 07:51:58;;;;;;;3.10;2.10;;;11.80;98.00;;;;;;4935559;29;20509;-70
2022/04/28 07:54:25;;;;;;;2.23;2.07;;;12.00;98.00;;;;;;4934367;29;20459;-70
2022/04/28 07:56:53;;;;;;;2.37;1.90;;;12.10;98.00;;;;;;4935434;29;20467;-70
2022/04/28 07:59:20;;;;;;;2.60;1.67;;;12.30;98.00;;;;;;4935339;29;20473;-71
2022/04/28 08:01:47;;;;;;;1.80;1.60;;;12.50;98.00;;;;;;4934676;29;20452;-70
2022/04/28 08:04:15;;;;;;;2.43;1.77;;;12.70;98.00;;;;;;4935151;29;20460;-70
2022/04/28 08:06:42;;;;;;;3.03;1.73;;;13.00;98.00;;;;;;4935329;29;20549;-71
2022/04/28 08:09:09;;;;;;;2.00;1.53;;;13.20;98.00;;;;;;4934989;29;20487;-70
2022/04/28 08:11:38;;;;;;;1.33;1.27;;;13.40;98.00;;;;;;4935034;29;20487;-70
2022/04/28 08:14:05;;;;;;;1.73;1.47;;;13.60;98.00;;;;;;4935325;29;20954;-71
2022/04/28 08:16:32;;;;;;;1.73;1.43;;;13.80;98.00;;;;;;4932621;29;20491;-71
2022/04/28 08:19:00;;;;;;;2.43;1.80;;;14.10;98.00;;;;;;4930732;29;20887;-72
2022/04/28 08:21:28;;;;;;;2.40;1.77;;;14.30;98.00;;;;;;4932438;29;20471;-75
2022/04/28 08:23:55;;;;;;;3.43;1.60;;;14.50;98.00;;;;;;4932497;29;20522;-74
2022/04/28 08:26:22;;;;;;;4.10;1.97;;;14.70;98.00;;;;;;4932170;29;20478;-71
2022/04/28 08:28:50;;;;;;;2.57;2.00;;;14.80;98.00;;;;;;4932444;29;20554;-69
2022/04/28 08:31:17;;;;;;;1.93;1.40;;;15.00;97.70;;;;;;4931736;29;20529;-68
2022/04/28 08:33:44;;;;;;;1.50;1.30;;;15.10;96.00;;;;;;4932473;29;20468;-69
2022/04/28 08:36:12;;;;;;;2.63;1.87;;;15.30;95.90;;;;;;4932355;29;20467;-68
2022/04/28 08:38:41;;;;;;;1.87;1.63;;;15.40;93.70;;;;;;4932347;29;20916;-69
2022/04/28 08:41:13;;;;;;;2.03;1.73;;;15.60;92.90;;;;;;4930998;29;20461;-69
2022/04/28 08:43:43;;;;;;;2.57;2.10;;;15.80;95.00;;;;;;4932267;29;20479;-69
2022/04/28 08:48:56;;;;;;;1.73;1.53;;;16.10;90.40;;;;;;4932005;29;20519;-68
2022/04/28 08:51:25;;;;;;;1.40;1.17;;;16.30;91.70;;;;;;4929434;29;20473;-68
2022/04/28 08:53:55;;;;;;;2.00;1.83;;;16.50;88.10;;;;;;4931732;29;20544;-69
2022/04/28 08:56:24;;;;;;;3.40;1.53;;;16.50;86.90;;;;;;4931610;29;20489;-69
2022/04/28 08:58:52;;;;;;;1.83;1.70;;;16.70;87.00;;;;;;4931743;29;20998;-68
2022/04/28 09:01:24;;;;;;;2.43;1.77;;;16.90;85.10;;;;;;4931509;29;20815;-70
2022/04/28 09:03:52;;;;;;;1.60;1.47;;;17.00;83.70;;;;;;4931636;29;20552;-69
2022/04/28 09:06:20;;;;;;;1.93;1.53;;;17.10;87.20;;;;;;4931406;29;21011;-69
2022/04/28 09:08:48;;;;;;;1.60;1.60;;;17.30;85.10;;;;;;4931531;29;20494;-70
2022/04/28 09:11:27;;;;;;;2.90;2.03;;;17.40;84.10;;;;;;4931578;29;20474;-69
2022/04/28 09:14:13;;;;;;;1.63;1.53;;;17.60;87.00;;;;;;4930975;29;20463;-68
2022/04/28 09:16:45;;;;;;;3.07;1.97;;;17.80;83.80;;;;;;4930010;29;20489;-69
2022/04/28 09:19:13;;;;;;;2.60;1.93;;;17.80;82.20;;;;;;4931425;29;20489;-69
2022/04/28 09:21:44;;;;;;;1.50;1.33;;;17.80;83.70;;;;;;4931228;29;20474;-70
2022/04/28 09:24:11;;;;;;;2.13;1.60;;;17.80;79.80;;;;;;4931647;29;20503;-70
2022/04/28 09:26:42;;;;;;;1.97;1.50;;;17.90;80.70;;;;;;4931393;29;20965;-69
2022/04/28 09:29:13;;;;;;;1.60;1.47;;;18.10;83.10;;;;;;4930908;29;20490;-70
2022/04/28 09:31:42;;;;;;;1.70;1.60;;;18.20;79.70;;;;;;4930140;29;20463;-70
2022/04/28 09:34:12;;;;;;;2.60;1.90;;;18.40;80.40;;;;;;4931245;29;20553;-69
2022/04/28 09:36:40;;;;;;;2.90;2.00;;;18.70;77.20;;;;;;4931438;29;20459;-71
2022/04/28 09:39:08;;;;;;;1.97;1.70;;;18.80;79.00;;;;;;4931326;29;20459;-69
2022/04/28 09:44:22;;;;;;;1.50;1.50;;;19.10;74.90;;;;;;4924270;29;20611;-69
2022/04/28 09:46:50;;;;;;;1.83;1.40;;;19.20;74.70;;;;;;4931309;29;20467;-69
2022/04/28 09:49:19;;;;;;;2.10;1.63;;;19.20;74.20;;;;;;4929041;29;20483;-71
2022/04/28 09:51:47;;;;;;;2.63;1.67;;;19.30;76.40;;;;;;4931040;29;20458;-70
2022/04/28 09:54:17;;;;;;;1.83;1.67;;;19.40;75.40;;;;;;4931137;29;20455;-71
2022/04/28 09:56:45;;;;;;;2.00;1.77;;;19.40;76.40;;;;;;4931048;29;21135;-70
2022/04/28 09:59:13;;;;;;;5.03;2.30;;;19.50;75.60;;;;;;4931029;29;20471;-70
2022/04/28 10:01:43;;;;;;;2.50;1.73;;;19.50;76.40;;;;;;4930727;29;20462;-70
2022/04/28 10:04:10;;;;;;;2.07;1.67;;;19.70;75.90;;;;;;4919866;29;20476;-68
2022/04/28 10:06:38;;;;;;;1.80;1.40;;;19.80;74.10;;;;;;4898714;29;20485;-70
2022/04/28 10:09:12;;;;;;;2.37;1.70;;;19.80;75.10;;;;;;4892888;29;20505;-70
2022/04/28 10:11:39;;;;;;;1.43;1.40;;;19.60;75.30;;;;;;4905056;29;20535;-70
2022/04/28 10:14:07;;;;;;;2.57;1.60;;;19.70;75.90;;;;;;4901149;29;20476;-70
2022/04/28 10:16:35;;;;;;;1.80;1.60;;;19.80;76.40;;;;;;4893290;29;20473;-70
2022/04/28 10:19:11;;;;;;;1.67;1.50;;;19.90;76.20;;;;;;4902917;29;20543;-69
2022/04/28 10:21:41;;;;;;;1.80;1.60;;;20.10;77.60;;;;;;4902247;29;20550;-71
2022/04/28 10:32:55;;;;;;;2.30;2.03;;;20.60;72.70;;;;;;4897975;29;20886;-72
2022/04/28 10:35:44;;;;;;;1.87;1.70;;;20.60;70.80;;;;;;4896995;29;20477;-71
2022/04/28 10:38:14;;;;;;;2.60;1.90;;;20.80;72.60;;;;;;4896670;29;20476;-71
2022/04/28 10:40:44;;;;;;;2.17;1.87;;;20.90;71.60;;;;;;4895460;29;20469;-71
2022/04/28 10:43:28;;;;;;;2.67;1.90;;;21.00;71.90;;;;;;4904640;29;20460;-72
2022/04/28 10:45:57;;;;;;;3.00;1.83;;;21.10;72.30;;;;;;4904755;29;20533;-71
2022/04/28 10:48:31;;;;;;;2.60;2.20;;;21.10;71.40;;;;;;4914747;29;20460;-73
2022/04/28 10:51:10;;;;;;;2.97;1.90;;;21.10;67.80;;;;;;4908175;29;20682;-72
2022/04/28 10:53:56;;;;;;;2.50;1.70;;;21.20;72.50;;;;;;4905142;29;21034;-71
2022/04/28 10:56:23;;;;;;;2.80;1.93;;;21.40;71.90;;;;;;4901184;29;20502;-70
2022/04/28 10:58:52;;;;;;;2.53;1.93;;;21.70;70.20;;;;;;4904390;29;20825;-71
2022/04/28 11:01:26;;;;;;;3.33;2.20;;;22.00;71.20;;;;;;4909090;29;20855;-71
2022/04/28 11:03:55;;;;;;;3.70;2.07;;;22.20;70.30;;;;;;4906131;29;20841;-71
2022/04/28 11:06:27;;;;;;;3.07;2.20;;;22.30;68.40;;;;;;4901273;29;20459;-71
2022/04/28 11:08:55;;;;;;;2.60;2.00;;;22.40;69.70;;;;;;4914383;29;20467;-71
2022/04/28 11:11:28;;;;;;;2.47;1.87;;;22.50;69.00;;;;;;4908236;29;20565;-71
2022/04/28 11:13:58;;;;;;;3.77;2.23;;;22.70;69.70;;;;;;4896414;29;20461;-71
2022/04/28 11:16:27;;;;;;;2.67;2.10;;;22.80;68.20;;;;;;4905559;29;20484;-71
2022/04/28 11:18:55;;;;;;;3.43;1.90;;;22.80;64.20;;;;;;4911799;29;20978;-71
2022/04/28 11:21:24;;;;;;;1.80;1.50;;;23.00;66.00;;;;;;4906506;29;20594;-71
2022/04/28 11:23:53;;;;;;;1.90;1.70;;;23.20;64.60;;;;;;4911604;29;20460;-71
2022/04/28 11:26:21;;;;;;;2.93;1.90;;;23.30;66.70;;;;;;4904170;29;20864;-71
2022/04/28 11:28:48;;;;;;;1.80;1.60;;;23.40;64.00;;;;;;4897730;29;20465;-73
2022/04/28 11:31:18;;;;;;;4.13;2.80;;;23.60;63.30;;;;;;4905379;29;20983;-71
2022/04/28 11:33:48;;;;;;;2.53;2.03;;;23.70;65.20;;;;;;4911800;29;20551;-72
2022/04/28 11:36:22;;;;;;;3.37;2.20;;;23.80;66.30;;;;;;4897152;29;21046;-71
2022/04/28 11:38:56;;;;;;;3.10;2.27;;;23.80;63.20;;;;;;4905431;29;20983;-72
2022/04/28 11:41:32;;;;;;;3.37;1.80;;;24.00;64.60;;;;;;4905589;29;20468;-71
2022/04/28 11:44:09;;;;;;;2.70;2.00;;;24.00;65.50;;;;;;4894400;29;20583;-71
2022/04/28 11:46:38;;;;;;;2.80;2.10;;;24.10;62.60;;;;;;4905867;29;20528;-72
2022/04/28 11:49:05;;;;;;;2.60;2.20;;;24.10;64.40;;;;;;4902736;29;20543;-73
2022/04/28 11:51:36;;;;;;;2.37;1.90;;;24.40;63.80;;;;;;4910142;29;20483;-71
2022/04/28 11:54:05;;;;;;;2.13;1.77;;;24.50;62.60;;;;;;4905226;29;21042;-71
2022/04/28 11:56:33;;;;;;;3.07;2.20;;;24.50;62.40;;;;;;4913159;29;20460;-72
2022/04/28 11:59:04;;;;;;;4.03;2.00;;;24.60;60.30;;;;;;4903131;29;20495;-72
2022/04/28 12:01:35;;;;;;;7.67;1.93;;;24.50;61.80;;;;;;4911957;29;21115;-72
2022/04/28 12:04:03;;;;;;;3.30;2.10;;;24.80;63.10;;;;;;4906335;29;20492;-71
2022/04/28 12:06:30;;;;;;;2.67;1.90;;;25.00;61.30;;;;;;4912795;29;20857;-72
2022/04/28 12:14:22;;;;;;;2.47;1.90;;;24.90;59.80;;;;;;4911971;29;20468;-72
2022/04/28 12:14:37;;;;;;;2.93;2.10;;;24.90;63.00;;;;;;4902770;29;20474;-72
2022/04/28 12:20:10;;;;;;;3.63;2.13;;;25.30;58.20;;;;;;4912129;29;20448;-71
2022/04/28 12:22:39;;;;;;;2.10;2.00;;;25.70;61.10;;;;;;4906593;29;20567;-72
2022/04/28 12:25:09;;;;;;;3.10;2.20;;;25.90;58.10;;;;;;4910910;29;20460;-71
2022/04/28 12:27:46;;;;;;;3.20;2.10;;;25.70;58.90;;;;;;4904491;29;20528;-72
2022/04/28 12:30:16;;;;;;;2.00;1.80;;;25.70;58.30;;;;;;4903789;29;20508;-73
2022/04/28 12:32:51;;;;;;;2.03;1.90;;;25.50;57.20;;;;;;4908891;29;20494;-73
2022/04/28 12:35:24;;;;;;;2.00;1.80;;;25.60;60.90;;;;;;4913361;29;20985;-73
2022/04/28 12:37:55;;;;;;;2.63;1.97;;;25.80;60.00;;;;;;4903879;29;20955;-72
2022/04/28 12:40:23;;;;;;;4.33;2.20;;;25.90;58.50;;;;;;4898150;29;20505;-73
2022/04/28 12:42:53;;;;;;;3.60;2.00;;;26.30;60.00;;;;;;4905002;29;20963;-73
2022/04/28 12:45:47;;;;;;;2.90;1.90;;;26.30;56.60;;;;;;4896982;29;20560;-72
2022/04/28 12:48:25;;;;;;;2.97;2.27;;;26.60;58.60;;;;;;4895813;29;20943;-72
2022/04/28 12:51:14;;;;;;;8.50;3.30;;;26.60;59.80;;;;;;4896426;29;20587;-73
2022/04/28 12:53:44;;;;;;;3.13;2.10;;;26.50;59.90;;;;;;4905239;29;20468;-72
2022/04/28 12:56:13;;;;;;;6.77;3.60;;;26.10;60.80;;;;;;4916380;29;20528;-72
2022/04/28 12:58:43;;;;;;;2.70;2.07;;;26.10;59.30;;;;;;4916377;29;20452;-72
2022/04/28 13:01:12;;;;;;;3.40;2.07;;;26.20;61.20;;;;;;4916126;29;20575;-73
2022/04/28 13:03:40;;;;;;;6.27;2.50;;;26.00;59.60;;;;;;4915975;29;20826;-73
2022/04/28 13:06:08;;;;;;;3.37;2.03;;;25.80;58.20;;;;;;4916086;29;20873;-73
2022/04/28 13:08:36;;;;;;;2.83;1.90;;;25.90;59.50;;;;;;4915931;29;20460;-72
2022/04/28 13:11:04;;;;;;;2.37;1.80;;;25.90;58.90;;;;;;4915800;29;20526;-71
2022/04/28 13:13:31;;;;;;;3.20;2.10;;;26.20;59.50;;;;;;4913537;29;20500;-72
2022/04/28 13:16:00;;;;;;;3.73;2.30;;;26.20;61.20;;;;;;4915781;29;20834;-72
2022/04/28 13:18:30;;;;;;;2.07;1.90;;;26.20;59.70;;;;;;4916001;29;20462;-72
2022/04/28 13:20:57;;;;;;;2.10;1.80;;;26.20;59.00;;;;;;4915733;29;20504;-72
2022/04/28 13:23:29;;;;;;;2.30;1.90;;;26.20;59.40;;;;;;4915707;29;20472;-74
2022/04/28 13:25:56;;;;;;;2.63;1.80;;;26.10;60.00;;;;;;4915835;29;20555;-72
2022/04/28 13:28:24;;;;;;;3.07;2.10;;;26.20;60.10;;;;;;4915859;29;20471;-73
2022/04/28 13:30:51;;;;;;;2.57;2.17;;;26.40;60.50;;;;;;4913400;29;20540;-73
2022/04/28 13:33:20;;;;;;;2.70;2.13;;;26.50;60.90;;;;;;4897042;29;20811;-74
2022/04/28 13:35:47;;;;;;;3.60;2.13;;;26.50;57.40;;;;;;4896767;29;20500;-71